Pflugerville's Hourly Summary for Saturday, May 12, 2018
Hour Temp
(f)
RH
(%)
Solar Rad.
(MJ/m2)
Rainfall
(in)
Wind
(mph)
5/12/2018 12:00 AM 74 92 0 0 8.97
5/12/2018 1:00 AM 73 100 0 0 8.65
5/12/2018 2:00 AM 73 100 0 0 8.98
5/12/2018 3:00 AM 73 100 0 0 8.87
5/12/2018 4:00 AM 73 100 0 0 7.45
5/12/2018 5:00 AM 73 100 0 0 8.77
5/12/2018 6:00 AM 72 100 0 0 8.6
5/12/2018 7:00 AM 71 100 0.01 0 7.46
5/12/2018 8:00 AM 71 100 0.13 0 6.27
5/12/2018 9:00 AM 72 100 0.41 0 8.76
5/12/2018 10:00 AM 76 99 0.48 0 10.99
5/12/2018 11:00 AM 78 76 2.09 0 12.45
5/12/2018 12:00 PM 81 64 2.99 0 11.91
5/12/2018 1:00 PM 82 65 2.48 0 9.81
5/12/2018 2:00 PM 84 55 2.96 0 10.9
5/12/2018 3:00 PM 86 47 3.09 0 10.37
5/12/2018 4:00 PM 87 46 1.97 0 8.65
5/12/2018 5:00 PM 88 44 0.96 0 8.48
5/12/2018 6:00 PM 88 43 1.64 0 8.42
5/12/2018 7:00 PM 87 45 0.85 0 7.65
5/12/2018 8:00 PM 85 49 0.38 0 6.91
5/12/2018 9:00 PM 82 57 0.01 0 6.74
5/12/2018 10:00 PM 80 65 0 0 7.51
5/12/2018 11:00 PM 78 74 0 0 8.23
Data Summary 78 75 20.45 0.00 8.83